sensor_id;sensor_type;location;lat;lon;timestamp;pressure;altitude;pressure_sealevel;temperature;humidity
56912;BME280;42800;53.928;27.662;2024-03-29T00:01:11;97176.78;;;9.17;100.00
56912;BME280;42800;53.928;27.662;2024-03-29T00:03:37;97180.78;;;9.06;100.00
56912;BME280;42800;53.928;27.662;2024-03-29T00:06:03;97168.00;;;8.92;100.00
56912;BME280;42800;53.928;27.662;2024-03-29T00:08:29;97156.56;;;9.08;100.00
56912;BME280;42800;53.928;27.662;2024-03-29T00:10:55;97145.72;;;9.38;100.00
56912;BME280;42800;53.928;27.662;2024-03-29T00:13:20;97138.53;;;9.14;100.00
56912;BME280;42800;53.928;27.662;2024-03-29T00:15:46;97133.44;;;9.16;100.00
56912;BME280;42800;53.928;27.662;2024-03-29T00:18:12;97136.75;;;8.97;100.00
56912;BME280;42800;53.928;27.662;2024-03-29T00:20:37;97135.06;;;9.10;100.00
56912;BME280;42800;53.928;27.662;2024-03-29T00:23:04;97142.75;;;9.22;100.00
56912;BME280;42800;53.928;27.662;2024-03-29T00:25:29;97138.41;;;9.28;100.00
56912;BME280;42800;53.928;27.662;2024-03-29T00:27:55;97136.25;;;9.09;100.00
56912;BME280;42800;53.928;27.662;2024-03-29T00:30:21;97150.19;;;9.22;100.00
56912;BME280;42800;53.928;27.662;2024-03-29T00:32:47;97150.63;;;9.16;100.00
56912;BME280;42800;53.928;27.662;2024-03-29T00:35:12;97156.50;;;9.15;100.00
56912;BME280;42800;53.928;27.662;2024-03-29T00:37:39;97154.44;;;9.26;100.00
56912;BME280;42800;53.928;27.662;2024-03-29T00:40:06;97151.50;;;9.03;100.00
56912;BME280;42800;53.928;27.662;2024-03-29T00:42:32;97147.09;;;9.16;100.00
56912;BME280;42800;53.928;27.662;2024-03-29T00:44:58;97150.84;;;9.33;100.00
56912;BME280;42800;53.928;27.662;2024-03-29T00:47:24;97158.59;;;9.00;100.00
56912;BME280;42800;53.928;27.662;2024-03-29T00:49:49;97153.19;;;8.93;100.00
56912;BME280;42800;53.928;27.662;2024-03-29T00:52:15;97156.66;;;8.97;100.00
56912;BME280;42800;53.928;27.662;2024-03-29T00:54:41;97155.13;;;9.37;100.00
56912;BME280;42800;53.928;27.662;2024-03-29T00:57:07;97163.56;;;9.54;100.00
56912;BME280;42800;53.928;27.662;2024-03-29T00:59:38;97181.78;;;9.26;100.00
56912;BME280;42800;53.928;27.662;2024-03-29T01:02:04;97181.06;;;9.18;100.00
56912;BME280;42800;53.928;27.662;2024-03-29T01:04:29;97188.38;;;9.32;100.00
56912;BME280;42800;53.928;27.662;2024-03-29T01:06:55;97195.41;;;9.33;100.00
56912;BME280;42800;53.928;27.662;2024-03-29T01:09:21;97203.94;;;9.39;100.00
56912;BME280;42800;53.928;27.662;2024-03-29T01:11:47;97208.38;;;9.22;100.00
56912;BME280;42800;53.928;27.662;2024-03-29T01:14:13;97189.63;;;9.24;100.00
56912;BME280;42800;53.928;27.662;2024-03-29T01:16:39;97197.75;;;9.31;100.00
56912;BME280;42800;53.928;27.662;2024-03-29T01:19:05;97206.78;;;9.25;100.00
56912;BME280;42800;53.928;27.662;2024-03-29T01:21:30;97206.94;;;9.07;100.00
56912;BME280;42800;53.928;27.662;2024-03-29T01:23:56;97198.41;;;8.98;100.00
56912;BME280;42800;53.928;27.662;2024-03-29T01:26:22;97189.56;;;9.31;100.00
56912;BME280;42800;53.928;27.662;2024-03-29T01:28:48;97194.38;;;9.16;100.00
56912;BME280;42800;53.928;27.662;2024-03-29T01:31:14;97191.84;;;9.40;100.00
56912;BME280;42800;53.928;27.662;2024-03-29T01:33:40;97206.84;;;9.17;100.00
56912;BME280;42800;53.928;27.662;2024-03-29T01:36:07;97204.72;;;8.91;100.00
56912;BME280;42800;53.928;27.662;2024-03-29T01:38:33;97188.97;;;9.06;100.00
56912;BME280;42800;53.928;27.662;2024-03-29T01:40:58;97189.34;;;9.08;100.00
56912;BME280;42800;53.928;27.662;2024-03-29T01:43:24;97190.97;;;9.02;100.00
56912;BME280;42800;53.928;27.662;2024-03-29T01:45:54;97196.09;;;8.92;100.00
56912;BME280;42800;53.928;27.662;2024-03-29T01:48:22;97200.75;;;8.99;100.00
56912;BME280;42800;53.928;27.662;2024-03-29T01:50:48;97184.69;;;9.05;100.00
56912;BME280;42800;53.928;27.662;2024-03-29T01:53:16;97190.03;;;9.19;100.00
56912;BME280;42800;53.928;27.662;2024-03-29T01:55:44;97179.63;;;9.07;100.00
56912;BME280;42800;53.928;27.662;2024-03-29T01:58:10;97181.81;;;9.23;100.00
56912;BME280;42800;53.928;27.662;2024-03-29T02:00:39;97191.63;;;9.20;100.00
56912;BME280;42800;53.928;27.662;2024-03-29T02:03:07;97202.56;;;9.16;100.00
56912;BME280;42800;53.928;27.662;2024-03-29T02:05:35;97205.81;;;9.01;100.00
56912;BME280;42800;53.928;27.662;2024-03-29T02:08:03;97201.06;;;9.08;100.00
56912;BME280;42800;53.928;27.662;2024-03-29T02:10:29;97198.63;;;9.21;100.00
56912;BME280;42800;53.928;27.662;2024-03-29T02:12:55;97207.72;;;9.07;100.00
56912;BME280;42800;53.928;27.662;2024-03-29T02:15:21;97204.25;;;9.03;100.00
56912;BME280;42800;53.928;27.662;2024-03-29T02:17:47;97218.66;;;9.07;100.00
56912;BME280;42800;53.928;27.662;2024-03-29T02:20:13;97220.06;;;9.26;100.00
56912;BME280;42800;53.928;27.662;2024-03-29T02:22:44;97218.00;;;8.85;100.00
56912;BME280;42800;53.928;27.662;2024-03-29T02:25:13;97209.41;;;8.90;100.00
56912;BME280;42800;53.928;27.662;2024-03-29T02:27:39;97204.41;;;8.78;100.00
56912;BME280;42800;53.928;27.662;2024-03-29T02:30:06;97191.91;;;9.29;100.00
56912;BME280;42800;53.928;27.662;2024-03-29T02:32:32;97204.31;;;8.92;100.00
56912;BME280;42800;53.928;27.662;2024-03-29T02:34:58;97214.72;;;9.12;100.00
56912;BME280;42800;53.928;27.662;2024-03-29T02:37:24;97213.06;;;9.22;100.00
56912;BME280;42800;53.928;27.662;2024-03-29T02:39:50;97213.19;;;9.07;100.00
56912;BME280;42800;53.928;27.662;2024-03-29T02:42:16;97214.47;;;8.92;100.00
56912;BME280;42800;53.928;27.662;2024-03-29T02:44:42;97206.91;;;9.10;100.00
56912;BME280;42800;53.928;27.662;2024-03-29T02:47:08;97208.59;;;8.97;100.00
56912;BME280;42800;53.928;27.662;2024-03-29T02:49:34;97210.25;;;8.80;100.00
56912;BME280;42800;53.928;27.662;2024-03-29T02:52:00;97208.66;;;8.83;100.00
56912;BME280;42800;53.928;27.662;2024-03-29T02:54:26;97211.69;;;8.95;100.00
56912;BME280;42800;53.928;27.662;2024-03-29T02:56:51;97220.84;;;8.71;100.00
56912;BME280;42800;53.928;27.662;2024-03-29T02:59:18;97222.03;;;8.70;100.00
56912;BME280;42800;53.928;27.662;2024-03-29T03:01:43;97216.47;;;8.84;100.00
56912;BME280;42800;53.928;27.662;2024-03-29T03:04:09;97222.66;;;8.92;100.00
56912;BME280;42800;53.928;27.662;2024-03-29T03:06:35;97232.72;;;9.02;100.00
56912;BME280;42800;53.928;27.662;2024-03-29T03:09:01;97244.53;;;8.92;100.00
56912;BME280;42800;53.928;27.662;2024-03-29T03:11:45;97237.78;;;9.07;100.00
56912;BME280;42800;53.928;27.662;2024-03-29T03:14:11;97253.81;;;9.02;100.00
56912;BME280;42800;53.928;27.662;2024-03-29T03:16:37;97262.81;;;8.99;100.00
56912;BME280;42800;53.928;27.662;2024-03-29T03:19:03;97269.13;;;8.88;100.00
56912;BME280;42800;53.928;27.662;2024-03-29T03:21:29;97278.09;;;8.92;100.00
56912;BME280;42800;53.928;27.662;2024-03-29T03:23:55;97273.16;;;9.29;100.00
56912;BME280;42800;53.928;27.662;2024-03-29T03:26:21;97279.47;;;9.22;100.00
56912;BME280;42800;53.928;27.662;2024-03-29T03:28:47;97291.41;;;9.42;100.00
56912;BME280;42800;53.928;27.662;2024-03-29T03:31:13;97307.97;;;9.25;100.00
56912;BME280;42800;53.928;27.662;2024-03-29T03:33:39;97310.91;;;9.48;100.00
56912;BME280;42800;53.928;27.662;2024-03-29T03:36:06;97339.78;;;9.56;100.00
56912;BME280;42800;53.928;27.662;2024-03-29T03:38:31;97376.69;;;9.82;100.00
56912;BME280;42800;53.928;27.662;2024-03-29T03:40:58;97425.38;;;9.57;100.00
56912;BME280;42800;53.928;27.662;2024-03-29T03:43:24;97450.09;;;9.32;100.00
56912;BME280;42800;53.928;27.662;2024-03-29T03:45:50;97450.88;;;9.32;100.00
56912;BME280;42800;53.928;27.662;2024-03-29T03:48:15;97451.63;;;9.43;100.00
56912;BME280;42800;53.928;27.662;2024-03-29T03:50:42;97489.44;;;9.59;100.00
56912;BME280;42800;53.928;27.662;2024-03-29T03:53:08;97516.09;;;9.41;100.00
56912;BME280;42800;53.928;27.662;2024-03-29T03:55:35;97531.31;;;9.42;100.00
56912;BME280;42800;53.928;27.662;2024-03-29T03:58:01;97548.59;;;9.25;100.00
56912;BME280;42800;53.928;27.662;2024-03-29T04:00:28;97559.44;;;9.53;100.00
56912;BME280;42800;53.928;27.662;2024-03-29T04:02:54;97586.78;;;9.46;100.00
56912;BME280;42800;53.928;27.662;2024-03-29T04:05:22;97577.16;;;8.84;100.00
56912;BME280;42800;53.928;27.662;2024-03-29T04:07:49;97552.88;;;9.22;100.00
56912;BME280;42800;53.928;27.662;2024-03-29T04:10:15;97569.66;;;9.35;100.00
56912;BME280;42800;53.928;27.662;2024-03-29T04:12:40;97580.66;;;9.13;100.00
56912;BME280;42800;53.928;27.662;2024-03-29T04:15:07;97584.91;;;9.22;100.00
56912;BME280;42800;53.928;27.662;2024-03-29T04:17:33;97583.38;;;9.21;100.00
56912;BME280;42800;53.928;27.662;2024-03-29T04:19:59;97575.53;;;9.33;100.00
56912;BME280;42800;53.928;27.662;2024-03-29T04:22:25;97575.88;;;9.35;100.00
56912;BME280;42800;53.928;27.662;2024-03-29T04:24:51;97568.53;;;9.14;100.00
56912;BME280;42800;53.928;27.662;2024-03-29T04:27:17;97574.00;;;9.07;100.00
56912;BME280;42800;53.928;27.662;2024-03-29T04:29:43;97583.34;;;9.28;100.00
56912;BME280;42800;53.928;27.662;2024-03-29T04:32:08;97593.13;;;9.18;100.00
56912;BME280;42800;53.928;27.662;2024-03-29T04:34:34;97602.88;;;9.15;100.00
56912;BME280;42800;53.928;27.662;2024-03-29T04:37:00;97602.50;;;9.24;100.00
56912;BME280;42800;53.928;27.662;2024-03-29T04:39:27;97618.50;;;9.22;100.00
56912;BME280;42800;53.928;27.662;2024-03-29T04:41:53;97640.38;;;9.26;100.00
56912;BME280;42800;53.928;27.662;2024-03-29T04:44:23;97636.84;;;9.32;100.00
56912;BME280;42800;53.928;27.662;2024-03-29T04:46:50;97650.50;;;9.39;100.00
56912;BME280;42800;53.928;27.662;2024-03-29T04:49:18;97675.91;;;9.47;100.00
56912;BME280;42800;53.928;27.662;2024-03-29T04:51:48;97707.16;;;9.46;100.00
56912;BME280;42800;53.928;27.662;2024-03-29T04:54:14;97707.56;;;9.27;100.00
56912;BME280;42800;53.928;27.662;2024-03-29T04:56:41;97713.41;;;9.25;100.00
56912;BME280;42800;53.928;27.662;2024-03-29T04:59:07;97711.47;;;9.43;100.00
56912;BME280;42800;53.928;27.662;2024-03-29T05:01:35;97723.97;;;9.41;100.00
56912;BME280;42800;53.928;27.662;2024-03-29T05:04:01;97737.66;;;9.41;100.00
56912;BME280;42800;53.928;27.662;2024-03-29T05:06:29;97748.97;;;9.32;100.00
56912;BME280;42800;53.928;27.662;2024-03-29T05:08:55;97763.81;;;9.42;100.00
56912;BME280;42800;53.928;27.662;2024-03-29T05:11:21;97782.56;;;9.61;100.00
56912;BME280;42800;53.928;27.662;2024-03-29T05:13:46;97793.50;;;9.76;100.00
56912;BME280;42800;53.928;27.662;2024-03-29T05:16:13;97788.44;;;9.53;100.00
56912;BME280;42800;53.928;27.662;2024-03-29T05:18:39;97795.88;;;9.63;100.00
56912;BME280;42800;53.928;27.662;2024-03-29T05:21:05;97791.94;;;9.71;100.00
56912;BME280;42800;53.928;27.662;2024-03-29T05:23:31;97795.84;;;9.59;100.00
56912;BME280;42800;53.928;27.662;2024-03-29T05:25:57;97804.47;;;9.58;100.00
56912;BME280;42800;53.928;27.662;2024-03-29T05:28:23;97804.06;;;9.56;100.00
56912;BME280;42800;53.928;27.662;2024-03-29T05:30:49;97800.56;;;9.45;100.00
56912;BME280;42800;53.928;27.662;2024-03-29T05:33:15;97797.81;;;9.62;100.00
56912;BME280;42800;53.928;27.662;2024-03-29T05:35:41;97803.31;;;9.73;100.00
56912;BME280;42800;53.928;27.662;2024-03-29T05:38:07;97794.66;;;9.89;100.00
56912;BME280;42800;53.928;27.662;2024-03-29T05:40:33;97787.22;;;10.07;100.00
56912;BME280;42800;53.928;27.662;2024-03-29T05:42:59;97768.00;;;10.22;100.00
56912;BME280;42800;53.928;27.662;2024-03-29T05:45:26;97738.72;;;10.01;100.00
56912;BME280;42800;53.928;27.662;2024-03-29T05:47:53;97740.25;;;10.09;100.00
56912;BME280;42800;53.928;27.662;2024-03-29T05:50:21;97726.94;;;10.14;100.00
56912;BME280;42800;53.928;27.662;2024-03-29T05:52:47;97704.22;;;10.21;100.00
56912;BME280;42800;53.928;27.662;2024-03-29T05:55:13;97670.56;;;10.24;100.00
56912;BME280;42800;53.928;27.662;2024-03-29T05:57:39;97676.06;;;10.17;100.00
56912;BME280;42800;53.928;27.662;2024-03-29T06:00:07;97697.22;;;10.09;100.00
56912;BME280;42800;53.928;27.662;2024-03-29T06:02:34;97678.78;;;10.31;100.00
56912;BME280;42800;53.928;27.662;2024-03-29T06:05:00;97680.75;;;10.27;100.00
56912;BME280;42800;53.928;27.662;2024-03-29T06:07:27;97683.06;;;10.25;100.00
56912;BME280;42800;53.928;27.662;2024-03-29T06:09:56;97717.94;;;10.14;100.00
56912;BME280;42800;53.928;27.662;2024-03-29T06:12:22;97630.00;;;10.71;100.00
56912;BME280;42800;53.928;27.662;2024-03-29T06:14:48;97200.84;;;11.24;100.00
56912;BME280;42800;53.928;27.662;2024-03-29T06:17:31;97155.69;;;11.05;100.00
56912;BME280;42800;53.928;27.662;2024-03-29T06:19:57;96955.59;;;11.42;100.00
56912;BME280;42800;53.928;27.662;2024-03-29T06:22:26;97163.88;;;11.09;100.00
56912;BME280;42800;53.928;27.662;2024-03-29T06:24:56;97353.75;;;10.86;100.00
56912;BME280;42800;53.928;27.662;2024-03-29T06:27:24;97402.75;;;10.84;100.00
56912;BME280;42800;53.928;27.662;2024-03-29T06:29:50;97450.38;;;10.63;100.00
56912;BME280;42800;53.928;27.662;2024-03-29T06:32:16;97455.38;;;10.68;100.00
56912;BME280;42800;53.928;27.662;2024-03-29T06:34:43;97504.75;;;10.65;100.00
56912;BME280;42800;53.928;27.662;2024-03-29T06:37:09;97503.38;;;10.87;100.00
56912;BME280;42800;53.928;27.662;2024-03-29T06:39:35;97297.41;;;12.33;100.00
56912;BME280;42800;53.928;27.662;2024-03-29T06:42:02;96807.09;;;13.18;100.00
56912;BME280;42800;53.928;27.662;2024-03-29T06:44:29;96574.94;;;14.25;100.00
56912;BME280;42800;53.928;27.662;2024-03-29T06:46:54;96554.41;;;14.17;100.00
56912;BME280;42800;53.928;27.662;2024-03-29T06:49:20;96585.44;;;14.80;100.00
56912;BME280;42800;53.928;27.662;2024-03-29T06:51:46;96620.59;;;15.07;100.00
56912;BME280;42800;53.928;27.662;2024-03-29T06:54:12;96662.56;;;14.62;100.00
56912;BME280;42800;53.928;27.662;2024-03-29T06:56:38;96661.94;;;14.57;100.00
56912;BME280;42800;53.928;27.662;2024-03-29T06:59:04;96632.44;;;13.92;100.00
56912;BME280;42800;53.928;27.662;2024-03-29T07:01:30;96655.81;;;13.87;100.00
56912;BME280;42800;53.928;27.662;2024-03-29T07:03:56;96743.63;;;14.20;100.00
56912;BME280;42800;53.928;27.662;2024-03-29T07:06:22;96703.06;;;13.86;100.00
56912;BME280;42800;53.928;27.662;2024-03-29T07:08:48;96746.94;;;14.15;100.00
56912;BME280;42800;53.928;27.662;2024-03-29T07:11:14;96824.59;;;15.01;100.00
56912;BME280;42800;53.928;27.662;2024-03-29T07:13:40;96916.72;;;15.48;100.00
56912;BME280;42800;53.928;27.662;2024-03-29T07:16:07;96984.31;;;16.28;100.00
56912;BME280;42800;53.928;27.662;2024-03-29T07:18:33;97107.31;;;16.94;100.00
56912;BME280;42800;53.928;27.662;2024-03-29T07:20:59;97049.41;;;15.66;100.00
56912;BME280;42800;53.928;27.662;2024-03-29T07:23:25;97094.75;;;16.31;100.00
56912;BME280;42800;53.928;27.662;2024-03-29T07:25:58;97114.06;;;16.22;100.00
56912;BME280;42800;53.928;27.662;2024-03-29T07:28:24;97132.03;;;16.48;100.00
56912;BME280;42800;53.928;27.662;2024-03-29T07:30:51;97152.72;;;15.91;100.00
56912;BME280;42800;53.928;27.662;2024-03-29T07:33:19;97151.31;;;16.08;100.00
56912;BME280;42800;53.928;27.662;2024-03-29T07:35:46;97154.84;;;15.87;100.00
56912;BME280;42800;53.928;27.662;2024-03-29T07:38:13;97156.56;;;16.37;100.00
56912;BME280;42800;53.928;27.662;2024-03-29T07:40:40;97110.41;;;16.65;100.00
56912;BME280;42800;53.928;27.662;2024-03-29T07:43:07;97174.88;;;17.83;100.00
56912;BME280;42800;53.928;27.662;2024-03-29T07:45:33;97228.44;;;18.35;100.00
56912;BME280;42800;53.928;27.662;2024-03-29T07:47:59;97263.69;;;18.90;100.00
56912;BME280;42800;53.928;27.662;2024-03-29T07:50:25;97260.22;;;19.14;100.00
56912;BME280;42800;53.928;27.662;2024-03-29T07:52:51;97288.31;;;19.82;100.00
56912;BME280;42800;53.928;27.662;2024-03-29T07:55:17;97301.38;;;19.67;100.00
56912;BME280;42800;53.928;27.662;2024-03-29T07:57:43;97313.16;;;19.52;100.00
56912;BME280;42800;53.928;27.662;2024-03-29T08:00:10;97315.38;;;19.39;100.00
56912;BME280;42800;53.928;27.662;2024-03-29T08:02:36;97321.53;;;18.92;100.00
56912;BME280;42800;53.928;27.662;2024-03-29T08:05:04;97311.81;;;18.41;100.00
56912;BME280;42800;53.928;27.662;2024-03-29T08:07:32;97326.59;;;18.66;100.00
56912;BME280;42800;53.928;27.662;2024-03-29T08:09:58;97292.22;;;17.80;100.00
56912;BME280;42800;53.928;27.662;2024-03-29T08:12:24;97341.75;;;18.46;100.00
56912;BME280;42800;53.928;27.662;2024-03-29T08:14:50;97336.47;;;17.31;100.00
56912;BME280;42800;53.928;27.662;2024-03-29T08:17:16;97327.91;;;17.78;100.00
56912;BME280;42800;53.928;27.662;2024-03-29T08:19:42;97341.03;;;17.56;100.00
56912;BME280;42800;53.928;27.662;2024-03-29T08:22:08;97334.16;;;18.10;100.00
56912;BME280;42800;53.928;27.662;2024-03-29T08:24:36;97352.50;;;18.17;100.00
56912;BME280;42800;53.928;27.662;2024-03-29T08:27:02;97349.78;;;17.76;100.00
56912;BME280;42800;53.928;27.662;2024-03-29T08:29:29;97359.63;;;18.36;100.00
56912;BME280;42800;53.928;27.662;2024-03-29T08:31:54;97350.16;;;18.15;100.00
56912;BME280;42800;53.928;27.662;2024-03-29T08:34:20;97349.09;;;18.13;100.00
56912;BME280;42800;53.928;27.662;2024-03-29T08:36:46;97360.31;;;17.28;100.00
56912;BME280;42800;53.928;27.662;2024-03-29T08:39:12;97353.25;;;17.05;100.00
56912;BME280;42800;53.928;27.662;2024-03-29T08:41:39;97332.72;;;16.71;100.00
56912;BME280;42800;53.928;27.662;2024-03-29T08:44:06;97326.97;;;16.66;100.00
56912;BME280;42800;53.928;27.662;2024-03-29T08:46:32;97330.38;;;16.83;100.00
56912;BME280;42800;53.928;27.662;2024-03-29T08:48:58;97312.50;;;16.62;100.00
56912;BME280;42800;53.928;27.662;2024-03-29T08:51:24;97309.03;;;16.48;100.00
56912;BME280;42800;53.928;27.662;2024-03-29T08:53:50;97339.31;;;16.30;100.00
56912;BME280;42800;53.928;27.662;2024-03-29T08:56:16;97345.38;;;16.38;100.00
56912;BME280;42800;53.928;27.662;2024-03-29T08:58:43;97342.25;;;16.36;100.00
56912;BME280;42800;53.928;27.662;2024-03-29T09:01:09;97335.66;;;16.55;100.00
56912;BME280;42800;53.928;27.662;2024-03-29T09:03:35;97324.50;;;16.24;100.00
56912;BME280;42800;53.928;27.662;2024-03-29T09:06:01;97343.00;;;16.14;100.00
56912;BME280;42800;53.928;27.662;2024-03-29T09:08:28;97348.25;;;15.99;100.00
56912;BME280;42800;53.928;27.662;2024-03-29T09:10:54;97348.56;;;15.89;100.00
56912;BME280;42800;53.928;27.662;2024-03-29T09:13:20;97341.84;;;15.90;100.00
56912;BME280;42800;53.928;27.662;2024-03-29T09:15:46;97325.28;;;15.13;100.00
56912;BME280;42800;53.928;27.662;2024-03-29T09:18:14;97327.72;;;15.49;100.00
56912;BME280;42800;53.928;27.662;2024-03-29T09:20:46;97337.75;;;15.43;100.00
56912;BME280;42800;53.928;27.662;2024-03-29T09:23:12;97349.59;;;15.44;100.00
56912;BME280;42800;53.928;27.662;2024-03-29T09:25:42;97339.97;;;15.61;100.00
56912;BME280;42800;53.928;27.662;2024-03-29T09:28:08;97352.44;;;15.40;100.00
56912;BME280;42800;53.928;27.662;2024-03-29T09:30:35;97319.84;;;15.35;100.00
56912;BME280;42800;53.928;27.662;2024-03-29T09:33:02;97362.31;;;15.67;100.00
56912;BME280;42800;53.928;27.662;2024-03-29T09:35:32;97382.53;;;16.37;100.00
56912;BME280;42800;53.928;27.662;2024-03-29T09:37:57;97388.19;;;16.68;100.00
56912;BME280;42800;53.928;27.662;2024-03-29T09:40:25;97394.59;;;16.78;100.00
56912;BME280;42800;53.928;27.662;2024-03-29T09:42:51;97408.69;;;16.92;100.00
56912;BME280;42800;53.928;27.662;2024-03-29T09:45:19;97417.00;;;17.14;100.00
56912;BME280;42800;53.928;27.662;2024-03-29T09:47:46;97392.75;;;16.62;100.00
56912;BME280;42800;53.928;27.662;2024-03-29T09:50:13;97420.97;;;17.35;100.00
56912;BME280;42800;53.928;27.662;2024-03-29T09:52:39;97431.44;;;17.62;100.00
56912;BME280;42800;53.928;27.662;2024-03-29T09:55:06;97436.38;;;17.36;100.00
56912;BME280;42800;53.928;27.662;2024-03-29T09:57:32;97433.91;;;17.60;100.00
56912;BME280;42800;53.928;27.662;2024-03-29T09:59:58;97433.50;;;17.49;100.00
56912;BME280;42800;53.928;27.662;2024-03-29T10:02:27;97449.16;;;17.65;100.00
56912;BME280;42800;53.928;27.662;2024-03-29T10:04:56;97460.66;;;17.76;100.00
56912;BME280;42800;53.928;27.662;2024-03-29T10:07:23;97440.81;;;17.12;100.00
56912;BME280;42800;53.928;27.662;2024-03-29T10:09:50;97439.53;;;16.69;100.00
56912;BME280;42800;53.928;27.662;2024-03-29T10:12:16;97422.28;;;16.30;100.00
56912;BME280;42800;53.928;27.662;2024-03-29T10:14:44;97398.53;;;15.94;100.00
56912;BME280;42800;53.928;27.662;2024-03-29T10:17:15;97408.06;;;15.93;100.00
56912;BME280;42800;53.928;27.662;2024-03-29T10:19:41;97409.66;;;15.65;100.00
56912;BME280;42800;53.928;27.662;2024-03-29T10:22:07;97407.09;;;15.33;100.00
56912;BME280;42800;53.928;27.662;2024-03-29T10:24:34;97388.50;;;15.07;100.00
56912;BME280;42800;53.928;27.662;2024-03-29T10:27:00;97349.31;;;15.00;100.00
56912;BME280;42800;53.928;27.662;2024-03-29T10:29:27;97333.84;;;14.90;100.00
56912;BME280;42800;53.928;27.662;2024-03-29T10:31:55;97327.63;;;14.86;100.00
56912;BME280;42800;53.928;27.662;2024-03-29T10:34:21;97348.88;;;14.72;100.00
56912;BME280;42800;53.928;27.662;2024-03-29T10:36:47;97338.81;;;14.66;100.00
56912;BME280;42800;53.928;27.662;2024-03-29T10:39:16;97333.59;;;14.55;100.00
56912;BME280;42800;53.928;27.662;2024-03-29T10:41:46;97283.69;;;14.49;100.00
56912;BME280;42800;53.928;27.662;2024-03-29T10:44:13;97283.88;;;14.58;100.00
56912;BME280;42800;53.928;27.662;2024-03-29T10:46:40;97309.91;;;14.57;100.00
56912;BME280;42800;53.928;27.662;2024-03-29T10:49:08;97258.13;;;14.49;100.00
56912;BME280;42800;53.928;27.662;2024-03-29T10:51:36;97271.44;;;14.38;100.00
56912;BME280;42800;53.928;27.662;2024-03-29T10:54:04;97309.25;;;14.53;100.00
56912;BME280;42800;53.928;27.662;2024-03-29T10:56:32;97337.41;;;14.45;100.00
56912;BME280;42800;53.928;27.662;2024-03-29T10:59:08;97339.28;;;14.48;100.00
56912;BME280;42800;53.928;27.662;2024-03-29T11:01:39;97366.88;;;14.48;100.00
56912;BME280;42800;53.928;27.662;2024-03-29T11:04:13;97371.69;;;14.60;100.00
56912;BME280;42800;53.928;27.662;2024-03-29T11:06:43;97412.28;;;14.89;100.00
56912;BME280;42800;53.928;27.662;2024-03-29T11:09:13;97430.47;;;15.15;100.00
56912;BME280;42800;53.928;27.662;2024-03-29T11:11:44;97421.88;;;15.26;100.00
56912;BME280;42800;53.928;27.662;2024-03-29T11:14:16;97454.28;;;15.38;100.00
56912;BME280;42800;53.928;27.662;2024-03-29T11:16:43;97451.44;;;15.54;100.00
56912;BME280;42800;53.928;27.662;2024-03-29T11:19:12;97456.56;;;15.27;100.00
56912;BME280;42800;53.928;27.662;2024-03-29T11:21:40;97425.28;;;14.59;100.00
56912;BME280;42800;53.928;27.662;2024-03-29T11:24:10;97375.63;;;14.30;100.00
56912;BME280;42800;53.928;27.662;2024-03-29T11:26:36;97353.75;;;13.57;100.00
56912;BME280;42800;53.928;27.662;2024-03-29T11:29:03;97324.69;;;13.56;100.00
56912;BME280;42800;53.928;27.662;2024-03-29T11:31:29;97319.16;;;13.89;100.00
56912;BME280;42800;53.928;27.662;2024-03-29T11:33:58;97304.50;;;13.92;100.00
56912;BME280;42800;53.928;27.662;2024-03-29T11:36:24;97300.88;;;14.11;100.00
56912;BME280;42800;53.928;27.662;2024-03-29T11:38:53;97349.03;;;14.36;100.00
56912;BME280;42800;53.928;27.662;2024-03-29T11:41:20;97370.78;;;14.34;100.00
56912;BME280;42800;53.928;27.662;2024-03-29T11:43:49;97358.06;;;14.07;100.00
56912;BME280;42800;53.928;27.662;2024-03-29T11:46:15;97323.59;;;14.16;100.00
56912;BME280;42800;53.928;27.662;2024-03-29T11:48:42;97271.22;;;13.86;100.00
56912;BME280;42800;53.928;27.662;2024-03-29T11:51:11;97240.31;;;13.79;100.00
56912;BME280;42800;53.928;27.662;2024-03-29T11:53:39;97197.72;;;13.38;100.00
56912;BME280;42800;53.928;27.662;2024-03-29T11:56:06;97074.94;;;12.95;100.00
56912;BME280;42800;53.928;27.662;2024-03-29T11:58:33;97046.41;;;12.72;100.00
56912;BME280;42800;53.928;27.662;2024-03-29T12:00:59;96971.59;;;12.65;100.00
56912;BME280;42800;53.928;27.662;2024-03-29T12:03:26;96942.97;;;12.79;100.00
56912;BME280;42800;53.928;27.662;2024-03-29T12:05:54;96945.25;;;12.67;100.00
56912;BME280;42800;53.928;27.662;2024-03-29T12:08:24;96966.59;;;12.76;100.00
56912;BME280;42800;53.928;27.662;2024-03-29T12:10:50;96995.41;;;12.55;100.00
56912;BME280;42800;53.928;27.662;2024-03-29T12:13:17;96983.91;;;12.60;100.00
56912;BME280;42800;53.928;27.662;2024-03-29T12:15:43;97033.13;;;12.55;100.00
56912;BME280;42800;53.928;27.662;2024-03-29T12:18:09;97015.50;;;12.68;100.00
56912;BME280;42800;53.928;27.662;2024-03-29T12:20:37;96991.09;;;12.87;100.00
56912;BME280;42800;53.928;27.662;2024-03-29T12:23:05;96982.00;;;13.03;100.00
56912;BME280;42800;53.928;27.662;2024-03-29T12:25:33;96992.94;;;13.06;100.00
56912;BME280;42800;53.928;27.662;2024-03-29T12:28:00;97025.75;;;13.30;100.00
56912;BME280;42800;53.928;27.662;2024-03-29T12:30:26;97060.66;;;13.33;100.00
56912;BME280;42800;53.928;27.662;2024-03-29T12:33:02;97107.25;;;13.53;100.00
56912;BME280;42800;53.928;27.662;2024-03-29T12:35:29;97115.97;;;13.51;100.00
56912;BME280;42800;53.928;27.662;2024-03-29T12:37:58;97200.59;;;13.80;100.00
56912;BME280;42800;53.928;27.662;2024-03-29T12:40:26;97210.91;;;13.59;100.00
56912;BME280;42800;53.928;27.662;2024-03-29T12:42:52;97214.66;;;13.82;100.00